createdAt,value
2017-12-06T00:00:41.338Z,96221.91
2017-12-06T00:03:09.697Z,96213.53
2017-12-06T00:05:38.048Z,96208.08
2017-12-06T00:08:06.402Z,96211.69
2017-12-06T00:10:34.767Z,96210.80
2017-12-06T00:13:08.691Z,96208.50
2017-12-06T00:15:42.863Z,96201.72
2017-12-06T00:18:11.220Z,96199.91
2017-12-06T00:20:39.572Z,96203.03
2017-12-06T00:23:07.961Z,96205.44
2017-12-06T00:25:36.311Z,96199.45
2017-12-06T00:28:04.666Z,96210.30
2017-12-06T00:30:33.022Z,96208.70
2017-12-06T00:33:01.383Z,96216.22
2017-12-06T00:35:29.770Z,96205.03
2017-12-06T00:37:58.125Z,96219.23
2017-12-06T00:40:26.484Z,96201.65
2017-12-06T00:42:54.845Z,96196.72
2017-12-06T00:45:23.205Z,96204.93
2017-12-06T00:47:51.595Z,96208.89
2017-12-06T00:50:19.961Z,96207.41
2017-12-06T00:52:48.350Z,96205.66
2017-12-06T00:55:16.692Z,96194.91
2017-12-06T00:57:45.059Z,96198.13
2017-12-06T01:00:13.540Z,96207.98
2017-12-06T01:02:41.896Z,96200.52
2017-12-06T01:05:10.256Z,96196.08
2017-12-06T01:07:38.618Z,96199.67
2017-12-06T01:10:06.974Z,96187.58
2017-12-06T01:12:35.369Z,96198.98
2017-12-06T01:15:03.727Z,96203.19
2017-12-06T01:17:32.115Z,96197.89
2017-12-06T01:20:00.479Z,96194.25
2017-12-06T01:22:28.837Z,96199.64
2017-12-06T01:24:57.220Z,96210.19
2017-12-06T01:27:25.759Z,96200.19
2017-12-06T01:29:54.109Z,96203.26
2017-12-06T01:32:22.482Z,96203.03
2017-12-06T01:34:50.840Z,96207.94
2017-12-06T01:37:19.326Z,96212.00
2017-12-06T01:39:47.682Z,96223.45
2017-12-06T01:42:16.043Z,96209.98
2017-12-06T01:44:44.404Z,96217.64
2017-12-06T01:47:12.760Z,96206.46
2017-12-06T01:49:41.155Z,96216.35
2017-12-06T01:52:09.511Z,96207.66
2017-12-06T01:54:37.875Z,96199.58
2017-12-06T01:57:06.235Z,96194.03
2017-12-06T01:59:34.612Z,96202.80
2017-12-06T02:02:03.020Z,96206.02
2017-12-06T02:04:31.395Z,96190.81
2017-12-06T02:06:59.746Z,96196.31
2017-12-06T02:09:28.104Z,96185.48
2017-12-06T02:11:56.465Z,96187.68
2017-12-06T02:14:24.859Z,96184.76
2017-12-06T02:16:53.235Z,96194.93
2017-12-06T02:19:21.587Z,96186.37
2017-12-06T02:21:49.959Z,96194.20
2017-12-06T02:24:18.318Z,96188.53
2017-12-06T02:26:46.670Z,96186.05
2017-12-06T02:29:15.075Z,96181.39
2017-12-06T02:31:43.427Z,96173.05
2017-12-06T02:34:11.791Z,96189.62
2017-12-06T02:36:40.149Z,96173.47
2017-12-06T02:39:08.515Z,96168.00
2017-12-06T02:41:48.651Z,96173.88
2017-12-06T02:44:28.767Z,96169.15
2017-12-06T02:46:57.127Z,96161.13
2017-12-06T02:49:25.494Z,96161.62
2017-12-06T02:51:53.872Z,96171.63
2017-12-06T02:54:22.233Z,96164.50
2017-12-06T02:56:50.611Z,96157.60
2017-12-06T02:59:18.971Z,96159.53
2017-12-06T03:01:47.329Z,96160.41
2017-12-06T03:04:15.699Z,96154.07
2017-12-06T03:06:44.083Z,96148.91
2017-12-06T03:09:12.473Z,96149.80
2017-12-06T03:11:40.829Z,96154.31
2017-12-06T03:14:09.212Z,96156.64
2017-12-06T03:16:37.564Z,96146.73
2017-12-06T03:19:05.923Z,96152.28
2017-12-06T03:21:34.319Z,96147.81
2017-12-06T03:24:02.794Z,96156.84
2017-12-06T03:26:31.148Z,96161.11
2017-12-06T03:28:59.499Z,96154.38
2017-12-06T03:31:27.858Z,96160.37
2017-12-06T03:33:56.207Z,96154.00
2017-12-06T03:36:24.591Z,96149.50
2017-12-06T03:38:52.947Z,96159.22
2017-12-06T03:41:21.298Z,96152.86
2017-12-06T03:43:49.669Z,96161.69
2017-12-06T03:46:18.024Z,96168.73
2017-12-06T03:48:46.415Z,96172.02
2017-12-06T03:51:14.772Z,96168.04
2017-12-06T03:53:43.127Z,96165.18
2017-12-06T03:56:11.479Z,96168.16
2017-12-06T03:58:39.844Z,96157.50
2017-12-06T04:01:08.223Z,96173.21
2017-12-06T04:03:36.591Z,96160.16
2017-12-06T04:06:04.936Z,96146.64
2017-12-06T04:08:33.313Z,96149.56
2017-12-06T04:11:01.688Z,96132.77
2017-12-06T04:13:30.064Z,96146.28
2017-12-06T04:15:58.417Z,96129.90
2017-12-06T04:18:26.767Z,96122.89
2017-12-06T04:20:55.139Z,96129.45
2017-12-06T04:23:23.498Z,96123.11
2017-12-06T04:25:51.883Z,96133.12
2017-12-06T04:28:20.275Z,96137.66
2017-12-06T04:30:48.621Z,96147.30
2017-12-06T04:33:16.978Z,96141.00
2017-12-06T04:35:45.331Z,96129.90
2017-12-06T04:38:13.824Z,96131.50
2017-12-06T04:40:42.183Z,96131.09
2017-12-06T04:43:10.543Z,96136.00
2017-12-06T04:45:39.024Z,96128.37
2017-12-06T04:48:07.388Z,96125.41
2017-12-06T04:50:35.738Z,96128.08
2017-12-06T04:53:04.096Z,96118.41
2017-12-06T04:55:32.499Z,96122.09
2017-12-06T04:58:00.856Z,96116.93
2017-12-06T05:00:29.213Z,96120.26
2017-12-06T05:02:57.572Z,96117.03
2017-12-06T05:05:25.927Z,96108.52
2017-12-06T05:07:54.316Z,96109.73
2017-12-06T05:10:22.680Z,96109.30
2017-12-06T05:12:51.032Z,96105.61
2017-12-06T05:15:19.396Z,96110.93
2017-12-06T05:17:47.751Z,96101.91
2017-12-06T05:20:16.163Z,96105.34
2017-12-06T05:22:44.510Z,96089.17
2017-12-06T05:25:12.877Z,96090.73
2017-12-06T05:27:41.239Z,96089.54
2017-12-06T05:30:09.603Z,96088.99
2017-12-06T05:32:37.987Z,96074.56
2017-12-06T05:35:06.351Z,96083.84
2017-12-06T05:37:34.727Z,96070.44
2017-12-06T05:40:03.148Z,96075.79
2017-12-06T05:42:31.464Z,96072.14
2017-12-06T05:44:59.888Z,96059.38
2017-12-06T05:47:28.243Z,96058.52
2017-12-06T05:49:56.642Z,96060.36
2017-12-06T05:52:24.999Z,96063.41
2017-12-06T05:54:53.356Z,96052.84
2017-12-06T05:57:21.714Z,96055.67
2017-12-06T05:59:50.098Z,96060.55
2017-12-06T06:02:18.451Z,96055.03
2017-12-06T06:04:46.839Z,96050.89
2017-12-06T06:07:15.235Z,96053.84
2017-12-06T06:09:43.588Z,96051.23
2017-12-06T06:12:11.955Z,96051.06
2017-12-06T06:14:40.304Z,96052.42
2017-12-06T06:17:08.669Z,96052.89
2017-12-06T06:19:37.052Z,96060.62
2017-12-06T06:22:05.413Z,96038.37
2017-12-06T06:24:33.907Z,96039.19
2017-12-06T06:27:02.303Z,96035.55
2017-12-06T06:29:30.765Z,96036.54
2017-12-06T06:31:59.207Z,96040.52
2017-12-06T06:34:27.627Z,96038.77
2017-12-06T06:36:56.032Z,96035.11
2017-12-06T06:39:25.428Z,96041.48
2017-12-06T06:41:53.878Z,96037.25
2017-12-06T06:44:22.269Z,96047.13
2017-12-06T06:46:50.631Z,96043.08
2017-12-06T06:49:19.036Z,96037.16
2017-12-06T06:51:47.404Z,96032.24
2017-12-06T06:54:15.792Z,96031.20
2017-12-06T06:56:44.149Z,96044.59
2017-12-06T06:59:12.512Z,96047.52
2017-12-06T07:01:40.908Z,96046.75
2017-12-06T07:04:09.277Z,96047.06
2017-12-06T07:06:37.653Z,96044.11
2017-12-06T07:09:06.061Z,96051.34
2017-12-06T07:11:34.406Z,96065.17
2017-12-06T07:14:02.762Z,96055.86
2017-12-06T07:16:31.119Z,96072.95
2017-12-06T07:18:59.473Z,96064.06
2017-12-06T07:21:27.823Z,96075.88
2017-12-06T07:23:56.179Z,96080.69
2017-12-06T07:26:24.585Z,96083.00
2017-12-06T07:28:52.950Z,96083.76
2017-12-06T07:31:21.316Z,96069.41
2017-12-06T07:33:49.679Z,96069.13
2017-12-06T07:36:18.045Z,96071.45
2017-12-06T07:38:46.534Z,96074.08
2017-12-06T07:41:14.891Z,96076.31
2017-12-06T07:43:43.272Z,96085.37
2017-12-06T07:46:11.623Z,96083.48
2017-12-06T07:48:39.990Z,96072.49
2017-12-06T07:51:08.396Z,96088.99
2017-12-06T07:53:36.777Z,96082.34
2017-12-06T07:56:05.136Z,96082.98
2017-12-06T07:58:39.023Z,96090.69
2017-12-06T08:01:07.385Z,96080.12
2017-12-06T08:03:35.777Z,96080.50
2017-12-06T08:06:04.141Z,96082.39
2017-12-06T08:08:32.634Z,96090.66
2017-12-06T08:11:00.981Z,96078.06
2017-12-06T08:13:29.337Z,96073.82
2017-12-06T08:15:57.684Z,96083.13
2017-12-06T08:18:26.043Z,96076.53
2017-12-06T08:20:54.420Z,96080.45
2017-12-06T08:23:22.777Z,96069.16
2017-12-06T08:25:51.152Z,96081.05
2017-12-06T08:28:19.507Z,96081.20
2017-12-06T08:30:47.918Z,96074.52
2017-12-06T08:33:16.280Z,96072.91
2017-12-06T08:35:44.643Z,96079.51
2017-12-06T08:38:13.044Z,96085.59
2017-12-06T08:40:41.400Z,96079.45
2017-12-06T08:43:09.803Z,96088.57
2017-12-06T08:45:38.151Z,96087.52
2017-12-06T08:48:06.512Z,96092.23
2017-12-06T08:50:34.864Z,96083.36
2017-12-06T08:53:03.231Z,96085.40
2017-12-06T08:55:31.643Z,96086.45
2017-12-06T08:57:59.993Z,96094.06
2017-12-06T09:00:28.338Z,96093.80
2017-12-06T09:02:56.685Z,96104.49
2017-12-06T09:05:25.032Z,96115.69
2017-12-06T09:07:53.429Z,96110.32
2017-12-06T09:10:21.775Z,96102.35
2017-12-06T09:12:50.252Z,96095.85
2017-12-06T09:15:18.614Z,96094.14
2017-12-06T09:17:46.951Z,96106.23
2017-12-06T09:20:15.306Z,96099.48
2017-12-06T09:22:43.697Z,96086.80
2017-12-06T09:25:12.051Z,96091.41
2017-12-06T09:27:40.411Z,96090.88
2017-12-06T09:30:08.819Z,96091.67
2017-12-06T09:32:37.179Z,96095.91
2017-12-06T09:35:05.554Z,96085.08
2017-12-06T09:37:33.903Z,96099.48
2017-12-06T09:40:02.252Z,96091.91
2017-12-06T09:42:30.619Z,96086.07
2017-12-06T09:44:58.968Z,96091.98
2017-12-06T09:47:27.349Z,96092.19
2017-12-06T09:49:55.739Z,96091.09
2017-12-06T09:52:24.168Z,96091.16
2017-12-06T09:55:05.363Z,96087.95
2017-12-06T09:57:33.707Z,96076.33
2017-12-06T10:00:02.107Z,96088.03
2017-12-06T10:02:30.461Z,96084.18
2017-12-06T10:04:58.828Z,96084.72
2017-12-06T10:07:27.241Z,96076.39
2017-12-06T10:09:55.630Z,96094.58
2017-12-06T10:12:24.008Z,96084.02
2017-12-06T10:14:52.372Z,96076.22
2017-12-06T10:17:20.751Z,96080.98
2017-12-06T10:19:49.110Z,96081.77
2017-12-06T10:22:17.483Z,96077.23
2017-12-06T10:24:45.869Z,96081.96
2017-12-06T10:27:14.243Z,96074.33
2017-12-06T10:29:42.615Z,96074.97
2017-12-06T10:32:11.172Z,96076.39
2017-12-06T10:34:39.662Z,96074.42
2017-12-06T10:37:08.092Z,96076.95
2017-12-06T10:39:36.519Z,96075.89
2017-12-06T10:42:04.905Z,96067.18
2017-12-06T10:44:33.307Z,96060.44
2017-12-06T10:47:01.658Z,96067.83
2017-12-06T10:49:30.042Z,96068.25
2017-12-06T10:51:58.526Z,96065.47
2017-12-06T10:54:26.917Z,96060.02
2017-12-06T10:56:55.264Z,96070.00
2017-12-06T10:59:23.620Z,96059.53
2017-12-06T11:01:52.008Z,96054.41
2017-12-06T11:04:20.358Z,96054.50
2017-12-06T11:06:48.695Z,96055.31
2017-12-06T11:09:17.079Z,96056.20
2017-12-06T11:11:45.428Z,96051.01
2017-12-06T11:14:13.808Z,96056.48
2017-12-06T11:16:42.168Z,96051.91
2017-12-06T11:19:10.509Z,96051.23
2017-12-06T11:21:38.857Z,96054.10
2017-12-06T11:24:07.215Z,96058.77
2017-12-06T11:26:35.575Z,96054.30
2017-12-06T11:29:03.963Z,96047.20
2017-12-06T11:31:32.319Z,96050.61
2017-12-06T11:34:00.788Z,96044.28
2017-12-06T11:36:29.142Z,96053.02
2017-12-06T11:38:57.487Z,96058.05
2017-12-06T11:41:26.000Z,96052.30
2017-12-06T11:43:54.350Z,96048.70
2017-12-06T11:46:22.703Z,96049.26
2017-12-06T11:48:51.048Z,96050.05
2017-12-06T11:51:19.401Z,96050.30
2017-12-06T11:53:47.766Z,96046.36
2017-12-06T11:56:16.117Z,96028.53
2017-12-06T11:58:44.492Z,96043.00
2017-12-06T12:01:12.843Z,96032.48
2017-12-06T12:03:41.199Z,96033.98
2017-12-06T12:06:09.552Z,96042.31
2017-12-06T12:08:37.896Z,96028.33
2017-12-06T12:11:06.284Z,96026.80
2017-12-06T12:13:34.651Z,96024.08
2017-12-06T12:16:03.001Z,96026.17
2017-12-06T12:18:31.358Z,96018.75
2017-12-06T12:20:59.707Z,96018.03
2017-12-06T12:23:28.092Z,96011.58
2017-12-06T12:25:56.448Z,96006.92
2017-12-06T12:28:24.802Z,96014.34
2017-12-06T12:33:50.448Z,96013.16
2017-12-06T12:36:18.810Z,96013.77
2017-12-06T12:38:47.205Z,96009.13
2017-12-06T12:41:15.549Z,96006.89
2017-12-06T12:43:43.903Z,96004.25
2017-12-06T12:46:12.264Z,96010.35
2017-12-06T12:48:41.579Z,96005.91
2017-12-06T12:51:09.969Z,96001.67
2017-12-06T12:53:38.329Z,95990.00
2017-12-06T12:56:06.684Z,95998.25
2017-12-06T12:58:35.030Z,96002.38
2017-12-06T13:01:03.378Z,95999.70
2017-12-06T13:03:31.747Z,96008.01
2017-12-06T13:06:00.164Z,95999.59
2017-12-06T13:08:28.484Z,96000.09
2017-12-06T13:10:56.858Z,95996.45
2017-12-06T13:13:25.202Z,95993.22
2017-12-06T13:15:53.681Z,96002.09
2017-12-06T13:18:22.040Z,95998.88
2017-12-06T13:20:50.389Z,95991.47
2017-12-06T13:23:18.736Z,95993.97
2017-12-06T13:25:47.108Z,95998.59
2017-12-06T13:28:15.601Z,96009.48
2017-12-06T13:30:43.968Z,96003.14
2017-12-06T13:33:12.320Z,96003.94
2017-12-06T13:35:40.668Z,96003.52
2017-12-06T13:38:09.030Z,95993.25
2017-12-06T13:40:37.434Z,95995.89
2017-12-06T13:43:05.786Z,95996.12
2017-12-06T13:45:34.132Z,95990.31
2017-12-06T13:48:02.472Z,95998.91
2017-12-06T13:50:30.826Z,95994.91
2017-12-06T13:52:59.210Z,95998.72
2017-12-06T13:55:27.565Z,95999.81
2017-12-06T13:57:55.918Z,95994.90
2017-12-06T14:00:24.266Z,95990.33
2017-12-06T14:02:52.624Z,95986.66
2017-12-06T14:05:20.988Z,95983.45
2017-12-06T14:07:49.329Z,95986.70
2017-12-06T14:10:17.670Z,95979.30
2017-12-06T14:12:46.012Z,95988.43
2017-12-06T14:15:14.345Z,95987.45
2017-12-06T14:17:42.718Z,95980.31
2017-12-06T14:20:11.061Z,95983.92
2017-12-06T14:22:39.435Z,95981.22
2017-12-06T14:25:12.807Z,95977.68
2017-12-06T14:30:40.489Z,95972.62
2017-12-06T14:33:10.440Z,95976.52
2017-12-06T14:35:38.805Z,95967.42
2017-12-06T14:38:07.140Z,95980.22
2017-12-06T14:40:35.488Z,95976.47
2017-12-06T14:43:03.821Z,95972.01
2017-12-06T14:45:32.186Z,95976.34
2017-12-06T14:48:00.522Z,95980.31
2017-12-06T14:50:28.880Z,95979.84
2017-12-06T14:52:57.224Z,95986.30
2017-12-06T14:55:25.561Z,95998.98
2017-12-06T14:57:53.897Z,95986.41
2017-12-06T15:00:22.235Z,95980.98
2017-12-06T15:02:50.604Z,95988.92
2017-12-06T15:05:18.978Z,95988.94
2017-12-06T15:07:47.316Z,95985.73
2017-12-06T15:10:15.660Z,95989.78
2017-12-06T15:12:43.995Z,95990.29
2017-12-06T15:15:12.375Z,95986.36
2017-12-06T15:17:40.714Z,95990.90
2017-12-06T15:20:09.066Z,95989.28
2017-12-06T15:22:37.404Z,95982.16
2017-12-06T15:25:05.739Z,95995.91
2017-12-06T15:27:34.110Z,95982.95
2017-12-06T15:30:02.455Z,95987.50
2017-12-06T15:32:30.816Z,95979.19
2017-12-06T15:34:59.166Z,95988.06
2017-12-06T15:37:27.544Z,95994.34
2017-12-06T15:39:55.891Z,95990.55
2017-12-06T15:42:24.236Z,95991.81
2017-12-06T15:44:52.576Z,95980.81
2017-12-06T15:47:20.920Z,95988.63
2017-12-06T15:49:49.368Z,95988.48
2017-12-06T15:52:18.707Z,95983.61
2017-12-06T15:54:47.092Z,95986.28
2017-12-06T15:57:15.501Z,95992.94
2017-12-06T15:59:43.806Z,95988.88
2017-12-06T16:02:12.141Z,95983.80
2017-12-06T16:04:40.497Z,95982.98
2017-12-06T16:07:08.899Z,95985.41
2017-12-06T16:09:37.260Z,95973.64
2017-12-06T16:12:05.611Z,95978.72
2017-12-06T16:14:33.948Z,95974.48
2017-12-06T16:17:02.292Z,95975.53
2017-12-06T16:19:30.716Z,95975.81
2017-12-06T16:21:59.044Z,95971.52
2017-12-06T16:24:27.452Z,95972.46
2017-12-06T16:26:55.886Z,95968.64
2017-12-06T16:29:24.277Z,95960.16
2017-12-06T16:31:52.735Z,95963.88
2017-12-06T16:34:21.082Z,95969.44
2017-12-06T16:37:01.152Z,95971.53
2017-12-06T16:39:29.504Z,95969.89
2017-12-06T16:41:57.855Z,95964.46
2017-12-06T16:44:35.295Z,95960.05
2017-12-06T16:47:03.661Z,95959.63
2017-12-06T17:22:05.977Z,95930.71
2017-12-06T17:24:34.365Z,95924.33
2017-12-06T17:27:02.763Z,95937.00
2017-12-06T17:32:27.267Z,95928.83
2017-12-06T17:34:55.609Z,95925.75
2017-12-06T17:37:23.963Z,95923.08
2017-12-06T17:39:52.300Z,95923.89
2017-12-06T17:42:20.629Z,95927.80
2017-12-06T17:44:48.956Z,95926.94
2017-12-06T17:47:17.290Z,95922.03
2017-12-06T17:49:45.663Z,95924.86
2017-12-06T17:52:14.014Z,95922.95
2017-12-06T17:54:42.342Z,95917.13
2017-12-06T17:57:10.692Z,95911.62
2017-12-06T17:59:39.026Z,95914.33
2017-12-06T18:02:15.385Z,95910.97
2017-12-06T18:04:43.725Z,95908.61
2017-12-06T18:07:12.059Z,95902.27
2017-12-06T18:09:40.408Z,95899.67
2017-12-06T18:12:08.766Z,95898.73
2017-12-06T18:14:37.124Z,95903.23
2017-12-06T18:17:05.451Z,95886.27
2017-12-06T18:19:33.805Z,95887.09
2017-12-06T18:22:02.134Z,95888.75
2017-12-06T18:24:30.466Z,95886.98
2017-12-06T18:26:58.807Z,95892.02
2017-12-06T18:29:27.215Z,95887.55
2017-12-06T18:31:55.569Z,95884.84
2017-12-06T18:34:23.938Z,95888.56
2017-12-06T18:36:52.305Z,95882.52
2017-12-06T18:39:20.654Z,95887.73
2017-12-06T18:41:49.031Z,95885.45
2017-12-06T18:44:17.367Z,95886.60
2017-12-06T18:46:45.754Z,95875.89
2017-12-06T18:49:14.137Z,95878.88
2017-12-06T18:51:42.611Z,95874.59
2017-12-06T18:54:10.993Z,95875.13
2017-12-06T18:56:39.355Z,95871.86
2017-12-06T18:59:07.749Z,95865.78
2017-12-06T19:01:37.167Z,95874.70
2017-12-06T19:04:05.555Z,95879.07
2017-12-06T19:06:33.899Z,95877.69
2017-12-06T19:09:02.291Z,95861.47
2017-12-06T19:11:30.634Z,95873.85
2017-12-06T19:13:59.015Z,95868.29
2017-12-06T19:16:27.486Z,95868.41
2017-12-06T19:18:55.825Z,95864.52
2017-12-06T19:21:24.166Z,95866.58
2017-12-06T19:23:52.550Z,95856.95
2017-12-06T19:26:20.914Z,95863.91
2017-12-06T19:28:49.280Z,95865.44
2017-12-06T19:31:17.764Z,95864.48
2017-12-06T19:36:20.712Z,95859.14
2017-12-06T19:38:49.061Z,95868.58
2017-12-06T19:41:17.394Z,95861.73
2017-12-06T19:43:46.803Z,95860.77
2017-12-06T19:46:15.147Z,95862.64
2017-12-06T19:48:43.639Z,95861.61
2017-12-06T19:51:12.009Z,95859.58
2017-12-06T19:53:40.385Z,95856.67
2017-12-06T19:56:08.732Z,95855.19
2017-12-06T19:58:37.061Z,95848.09
2017-12-06T20:01:05.423Z,95847.81
2017-12-06T20:03:33.758Z,95850.20
2017-12-06T20:06:02.118Z,95848.98
2017-12-06T20:08:30.449Z,95853.06
2017-12-06T20:10:58.799Z,95848.11
2017-12-06T20:13:27.158Z,95841.77
2017-12-06T20:15:55.493Z,95834.16
2017-12-06T20:18:23.846Z,95830.91
2017-12-06T20:20:52.196Z,95831.83
2017-12-06T20:23:20.544Z,95836.53
2017-12-06T20:25:48.901Z,95836.30
2017-12-06T20:28:17.301Z,95840.88
2017-12-06T20:30:45.594Z,95828.27
2017-12-06T20:33:13.947Z,95831.89
2017-12-06T20:35:42.319Z,95836.75
2017-12-06T20:38:10.703Z,95821.33
2017-12-06T20:40:39.037Z,95822.59
2017-12-06T20:43:07.375Z,95822.50
2017-12-06T20:45:35.722Z,95817.34
2017-12-06T20:48:04.060Z,95812.26
2017-12-06T20:50:32.454Z,95816.00
2017-12-06T20:53:00.803Z,95811.31
2017-12-06T20:55:29.141Z,95807.15
2017-12-06T20:57:57.504Z,95803.41
2017-12-06T21:00:25.925Z,95806.12
2017-12-06T21:02:54.346Z,95804.72
2017-12-06T21:05:22.722Z,95794.13
2017-12-06T21:07:51.075Z,95803.78
2017-12-06T21:10:19.421Z,95799.24
2017-12-06T21:12:47.773Z,95795.66
2017-12-06T21:15:16.145Z,95792.42
2017-12-06T21:17:44.490Z,95792.38
2017-12-06T21:20:12.841Z,95787.45
2017-12-06T21:22:41.199Z,95789.52
2017-12-06T21:25:09.620Z,95782.80
2017-12-06T21:27:37.989Z,95783.05
2017-12-06T21:30:06.326Z,95780.67
2017-12-06T21:32:34.681Z,95779.23
2017-12-06T21:35:03.209Z,95777.62
2017-12-06T21:37:32.558Z,95772.61
2017-12-06T21:40:00.935Z,95761.39
2017-12-06T21:42:29.298Z,95763.06
2017-12-06T21:44:57.653Z,95757.39
2017-12-06T21:47:26.005Z,95753.47
2017-12-06T21:49:54.346Z,95755.74
2017-12-06T21:52:22.710Z,95743.77
2017-12-06T21:54:51.041Z,95753.40
2017-12-06T21:57:19.394Z,95741.97
2017-12-06T21:59:47.724Z,95738.05
2017-12-06T22:02:16.071Z,95733.29
2017-12-06T22:04:44.576Z,95731.72
2017-12-06T22:07:12.906Z,95730.95
2017-12-06T22:09:41.241Z,95718.72
2017-12-06T22:12:09.578Z,95716.81
2017-12-06T22:14:37.919Z,95711.22
2017-12-06T22:17:06.899Z,95709.27
2017-12-06T22:19:35.241Z,95698.70
2017-12-06T22:22:03.572Z,95693.64
2017-12-06T22:24:31.916Z,95698.54
2017-12-06T22:27:00.242Z,95691.44
2017-12-06T22:29:28.602Z,95685.23
2017-12-06T22:31:56.938Z,95684.92
2017-12-06T22:34:25.286Z,95679.56
2017-12-06T22:36:53.626Z,95681.09
2017-12-06T22:39:21.972Z,95678.34
2017-12-06T22:41:50.347Z,95675.86
2017-12-06T22:44:18.703Z,95678.44
2017-12-06T22:46:47.042Z,95672.72
2017-12-06T22:49:15.380Z,95666.31
2017-12-06T22:51:43.714Z,95665.57
2017-12-06T22:54:12.174Z,95662.80
2017-12-06T22:56:40.514Z,95654.02
2017-12-06T22:59:08.862Z,95654.27
2017-12-06T23:01:37.198Z,95645.70
2017-12-06T23:04:05.530Z,95649.66
2017-12-06T23:06:33.894Z,95639.23
2017-12-06T23:09:02.261Z,95648.62
2017-12-06T23:11:30.623Z,95645.27
2017-12-06T23:13:58.959Z,95628.18
2017-12-06T23:16:27.286Z,95636.05
2017-12-06T23:18:55.641Z,95627.48
2017-12-06T23:21:23.998Z,95618.05
2017-12-06T23:23:52.338Z,95626.36
2017-12-06T23:26:20.688Z,95619.52
2017-12-06T23:28:49.026Z,95619.54
2017-12-06T23:31:17.388Z,95605.81
2017-12-06T23:33:45.730Z,95609.20
2017-12-06T23:36:14.057Z,95603.34
2017-12-06T23:38:42.398Z,95596.66
2017-12-06T23:41:10.761Z,95595.61
2017-12-06T23:43:39.140Z,95591.67
2017-12-06T23:46:08.407Z,95596.20
2017-12-06T23:48:36.743Z,95592.77
2017-12-06T23:51:05.100Z,95599.23
2017-12-06T23:53:33.433Z,95584.81
2017-12-06T23:56:01.802Z,95578.65
2017-12-06T23:58:30.143Z,95580.00
